This is the latest recevied weather packets stored in our database for station/object I2HLY-4. If no packets are shown the sender has not sent any weather packets the latest 10 day(s).
| Time | Temp. | Humidity | Pressure | Rain* | Wind** | Luminosity | Snow |
|---|---|---|---|---|---|---|---|
| 1778158037 | 13.33° C | 67% | 1014.4 hPa | 0 mm | - | - | - |
| 1778157150 | 13.33° C | 67% | 1014.5 hPa | 0 mm | - | - | - |
| 1778156251 | 13.33° C | 69% | 1014.4 hPa | 0 mm | - | - | - |
| 1778155343 | 13.33° C | 69% | 1014.4 hPa | 0 mm | - | - | - |
| 1778154434 | 13.89° C | 66% | 1014.5 hPa | 0 mm | - | - | - |
| 1778153531 | 13.89° C | 69% | 1014.6 hPa | 0 mm | - | - | - |
| 1778152644 | 13.89° C | 70% | 1014.6 hPa | 0 mm | - | - | - |
| 1778151740 | 13.89° C | 72% | 1014.7 hPa | 0 mm | - | - | - |
| 1778150842 | 13.89° C | 72% | 1014.7 hPa | 0 mm | - | - | - |
| 1778149938 | 13.33° C | 71% | 1014.7 hPa | 0 mm | - | - | - |
| 1778149037 | 13.33° C | 70% | 1014.7 hPa | 0 mm | - | - | - |
| 1778148134 | 12.78° C | 75% | 1014.8 hPa | 0 mm | - | - | - |
| 1778147245 | 13.33° C | 72% | 1014.5 hPa | 0 mm | - | - | - |
| 1778146344 | 12.78° C | 74% | 1014.6 hPa | 0 mm | - | - | - |
| 1778145438 | 12.22° C | 77% | 1014.5 hPa | 0 mm | - | - | - |
| 1778144534 | 11.67° C | 83% | 1014.7 hPa | 0 mm | - | - | - |
| 1778143635 | 11.11° C | 85% | 1014.7 hPa | 0 mm | - | - | - |
| 1778142732 | 11.11° C | 84% | 1014.7 hPa | 0 mm | - | - | - |
| 1778141831 | 10.56° C | 84% | 1014.6 hPa | 0 mm | - | - | - |
| 1778140945 | 10° C | 92% | 1014.4 hPa | 0 mm | - | - | - |
| 1778140041 | 9.44° C | 94% | 1014.4 hPa | 0 mm | - | - | - |
| 1778139138 | 8.89° C | 95% | 1014.3 hPa | 0 mm | - | - | - |
| 1778138232 | 8.33° C | 95% | 1014.3 hPa | 0 mm | - | - | - |
| 1778137342 | 8.33° C | 95% | 1014 hPa | 0 mm | - | - | - |
| 1778136442 | 7.78° C | 97% | 1013.7 hPa | 0 mm | - | - | - |
* Rain latest hour (hover to see other rain measurements)
** Current wind speed in m/s (hover to see current wind gust speed)